createdAt,value
2019-02-19T00:07:41.236Z,968.3
2019-02-19T00:17:44.681Z,968.3
2019-02-19T00:27:48.084Z,968.4
2019-02-19T00:37:51.542Z,968.4
2019-02-19T00:47:54.966Z,968.8
2019-02-19T00:57:58.431Z,968.7
2019-02-19T01:08:01.867Z,969
2019-02-19T01:18:05.319Z,969.4
2019-02-19T01:28:08.771Z,969.3
2019-02-19T01:38:12.217Z,969.5
2019-02-19T01:48:15.642Z,969.3
2019-02-19T01:58:19.114Z,969.4
2019-02-19T02:08:22.600Z,969.7
2019-02-19T02:18:26.040Z,969.6
2019-02-19T02:28:29.486Z,969.6
2019-02-19T02:38:32.938Z,969.7
2019-02-19T02:48:36.362Z,969.8
2019-02-19T02:58:39.811Z,969.9
2019-02-19T03:08:43.239Z,970
2019-02-19T03:18:46.703Z,970.1
2019-02-19T03:28:50.142Z,969.7
2019-02-19T03:38:53.566Z,969.9
2019-02-19T03:48:57.021Z,970.3
2019-02-19T03:59:00.472Z,970.3
2019-02-19T04:15:22.750Z,970.2
2019-02-19T04:35:46.763Z,970.3
2019-02-19T04:45:52.130Z,970.7
2019-02-19T04:55:55.552Z,970.7
2019-02-19T05:05:58.960Z,963.4
2019-02-19T05:16:02.391Z,963.5
2019-02-19T05:26:05.849Z,963.7
2019-02-19T05:36:09.536Z,963.4
2019-02-19T05:46:12.995Z,963.5
2019-02-19T05:56:16.454Z,963.5
2019-02-19T06:06:19.895Z,963.7
2019-02-19T06:16:23.327Z,963.5
2019-02-19T06:26:26.771Z,963.6
2019-02-19T06:36:30.214Z,963.7
2019-02-19T06:46:33.662Z,971.3
2019-02-19T06:56:37.099Z,971.3
2019-02-19T07:06:40.574Z,971
2019-02-19T07:16:44.023Z,970.7
2019-02-19T07:26:47.458Z,969.2
2019-02-19T07:36:50.904Z,968.4
2019-02-19T07:46:54.325Z,967.5
2019-02-19T07:56:57.768Z,966.6
2019-02-19T08:07:01.221Z,965.4
2019-02-19T08:17:04.682Z,965.3
2019-02-19T08:27:09.150Z,971.7
2019-02-19T08:37:12.541Z,970.9
2019-02-19T08:47:15.971Z,970.3
2019-02-19T08:57:19.467Z,969.5
2019-02-19T09:07:22.929Z,969.1
2019-02-19T09:17:26.370Z,968.5
2019-02-19T09:27:29.788Z,968.3
2019-02-19T09:37:33.220Z,967.2
2019-02-19T09:47:36.649Z,966.9
2019-02-19T09:57:40.202Z,966.5
2019-02-19T10:07:43.669Z,965.9
2019-02-19T10:17:47.081Z,966.1
2019-02-19T10:27:50.538Z,965.9
2019-02-19T10:37:53.947Z,966.3
2019-02-19T10:47:57.366Z,967.2
2019-02-19T10:58:00.797Z,967.3
2019-02-19T11:08:04.245Z,967.3
2019-02-19T11:18:07.736Z,967.1
2019-02-19T11:28:11.177Z,966.8
2019-02-19T11:38:14.626Z,966.6
2019-02-19T11:48:19.519Z,966.2
2019-02-19T11:58:22.959Z,965.8
2019-02-19T12:08:26.406Z,965.6
2019-02-19T12:18:29.841Z,965.2
2019-02-19T12:28:33.285Z,964.8
2019-02-19T12:38:36.745Z,964.5
2019-02-19T12:48:40.167Z,964.2
2019-02-19T12:58:43.605Z,964
2019-02-19T13:08:47.069Z,963.7
2019-02-19T13:18:51.509Z,964
2019-02-19T13:28:54.949Z,964
2019-02-19T13:38:58.351Z,963.8
2019-02-19T13:49:01.802Z,963.9
2019-02-19T13:59:05.225Z,964.2
2019-02-19T14:09:08.674Z,964.4
2019-02-19T14:19:20.965Z,964.6
2019-02-19T14:29:24.528Z,964.5
2019-02-19T14:39:27.950Z,964.6
2019-02-19T14:49:37.834Z,964.7
2019-02-19T14:59:41.296Z,964.6
2019-02-19T15:09:44.723Z,964.7
2019-02-19T15:19:48.173Z,964.8
2019-02-19T15:29:51.591Z,964.8
2019-02-19T15:39:55.011Z,964.9
2019-02-19T15:49:58.434Z,965
2019-02-19T16:00:01.921Z,965
2019-02-19T16:10:05.375Z,964.9
2019-02-19T16:20:08.835Z,965.1
2019-02-19T16:30:12.289Z,965.5
2019-02-19T16:40:15.763Z,965.4
2019-02-19T16:50:19.209Z,965.5
2019-02-19T17:00:22.686Z,965.8
2019-02-19T17:10:26.156Z,966.2
2019-02-19T17:20:30.053Z,966.4
2019-02-19T17:30:33.518Z,966.8
2019-02-19T17:40:36.960Z,967.2
2019-02-19T17:50:40.356Z,967.6
2019-02-19T18:00:43.820Z,967.8
2019-02-19T18:10:47.246Z,968
2019-02-19T18:20:50.683Z,968.3
2019-02-19T18:30:54.148Z,968.6
2019-02-19T18:40:57.589Z,968.9
2019-02-19T18:51:01.039Z,969.4
2019-02-19T19:01:04.522Z,969.5
2019-02-19T19:11:07.921Z,969.7
2019-02-19T19:21:11.403Z,969.8
2019-02-19T19:31:14.851Z,970.3
2019-02-19T19:41:18.312Z,970.3
2019-02-19T19:51:21.775Z,970.5
2019-02-19T20:01:25.237Z,970.5
2019-02-19T20:11:28.730Z,971.1
2019-02-19T20:21:32.177Z,964
2019-02-19T20:31:35.687Z,964.2
2019-02-19T20:41:39.147Z,964.4
2019-02-19T20:51:42.576Z,964.5
2019-02-19T21:01:46.012Z,971.8
2019-02-19T21:11:49.474Z,964.4
2019-02-19T21:21:52.926Z,964.5
2019-02-19T21:31:56.369Z,964.9
2019-02-19T21:41:59.831Z,964.6
2019-02-19T21:52:03.281Z,964.7
2019-02-19T22:02:06.670Z,964.6
2019-02-19T22:12:10.095Z,964.8
2019-02-19T22:22:13.560Z,964.6
2019-02-19T22:32:16.957Z,965
2019-02-19T22:42:20.375Z,965.1
2019-02-19T22:52:23.792Z,965.1
2019-02-19T23:02:27.220Z,964.9
2019-02-19T23:12:30.655Z,964.9
2019-02-19T23:22:34.077Z,965.1
2019-02-19T23:32:37.518Z,965.3
2019-02-19T23:42:40.966Z,965.4
2019-02-19T23:52:44.439Z,965.8
